Toyofujimaru No.2 — 7JDI — position and weather

sailwx.info

Track history (hours):
 
Tides and Currents Weather Stations Pressure Air Temp Water Temp Dewpoint Dewpoint Depression Visibility Wind Speed Wind Dir Waves Ship Positions

Toyofujimaru No.2

Last reported at 2014-Sep-01 15:24 UTC. Time now 2014-Sep-01 18:41 UTC.
Position N 34°30' E 138°33'.

Length 165 m; draft 6.5 m.

Type: Cargo ship. MMSI: 432667000.

Date/timePositionNaut miles runAvg speedWind from/ knotsBaromVisibWave heightAir tempDewpointWater temp
2014-Sep-01 15:24N 34°30' E 138°33'5217.2
2014-Sep-01 12:22N 34°41' E 139°35'1316.0
2014-Sep-01 11:33N 34°54' E 139°39'1817.8
2014-Sep-01 10:33N 35°11' E 139°45'1211.6
2014-Sep-01 09:34N 35°22' E 139°41'3 2.7
2014-Sep-01 08:34N 35°23' E 139°39'0 0.0
2014-Sep-01 07:33N 35°23' E 139°39'0 0.0
2014-Sep-01 06:33N 35°23' E 139°39'0 0.0
2014-Sep-01 05:33N 35°23' E 139°39'0 0.0
2014-Sep-01 04:33N 35°23' E 139°39'0 0.0
2014-Sep-01 03:33N 35°23' E 139°39'0 0.0
2014-Sep-01 02:33N 35°23' E 139°39'1 1.1
2014-Sep-01 01:34N 35°23' E 139°40'1313.1
2014-Sep-01 00:33N 35°11' E 139°47'1717.5
2014-Aug-31 23:33N 34°54' E 139°47'1817.6
2014-Aug-31 22:33N 34°58' E 140°08'1918.5
2014-Aug-31 21:31N 35°08' E 140°28'1919.0
2014-Aug-31 20:32N 35°22' E 140°43'1919.5
2014-Aug-31 19:34N 35°38' E 140°55'1919.2
2014-Aug-31 18:33N 35°57' E 141°01'2519.4
2014-Aug-31 17:16N 36°22' E 141°04'4 0.2
2014-Aug-30 17:10N 36°18' E 141°03'1318.5
2014-Aug-30 16:29N 36°05' E 141°01'1718.8
2014-Aug-30 15:33N 35°48' E 140°58'1818.3
2014-Aug-30 14:33N 35°31' E 140°49'1918.8
2014-Aug-30 13:33N 35°16' E 140°36'1918.9
2014-Aug-30 12:34N 35°03' E 140°19'2019.7
2014-Aug-30 11:33N 34°52' E 139°59'1616.2
2014-Aug-30 10:34N 35°01' E 139°43'1616.0
2014-Aug-30 09:33N 35°17' E 139°45'1313.5
2014-Aug-30 08:33N 35°30' E 139°46'1 0.7
2014-Aug-30 07:32N 35°30' E 139°45'0 0.0
2014-Aug-30 06:32N 35°30' E 139°45'0 0.0
2014-Aug-30 05:32N 35°30' E 139°45'0 0.0
2014-Aug-30 04:32N 35°30' E 139°45'0 0.0
2014-Aug-30 03:32N 35°30' E 139°45'8 8.4
2014-Aug-30 02:34N 35°23' E 139°40'1 0.7
2014-Aug-30 01:33N 35°23' E 139°39'0 0.0
2014-Aug-30 00:33N 35°23' E 139°39'0 0.0
2014-Aug-29 23:33N 35°23' E 139°39'0 0.0
2014-Aug-29 22:33N 35°23' E 139°39'3 2.9
2014-Aug-29 21:33N 35°22' E 139°42'1313.1
2014-Aug-29 20:33N 35°09' E 139°45'2019.5
2014-Aug-29 19:33N 34°55' E 139°28'4819.2
2014-Aug-29 17:04N 34°31' E 138°38'1018.3
2014-Aug-29 16:32N 34°30' E 138°26'6 0.2
2014-Aug-28 15:32N 34°28' E 138°32'5217.3
2014-Aug-28 12:31N 34°44' E 139°32'1919.7
2014-Aug-28 11:33N 35°01' E 139°41'1615.7
2014-Aug-28 10:33N 35°17' E 139°45'8 8.5
2014-Aug-28 09:33N 35°23' E 139°39'0 0.0
2014-Aug-28 08:32N 35°23' E 139°39'0 0.0
2014-Aug-28 07:32N 35°23' E 139°39'0 0.0
2014-Aug-28 06:32N 35°23' E 139°39'0 0.0
2014-Aug-28 05:32N 35°23' E 139°39'0 0.0
2014-Aug-28 04:32N 35°23' E 139°39'0 0.0
2014-Aug-28 03:32N 35°23' E 139°39'0 0.0
2014-Aug-28 02:32N 35°23' E 139°39'0 0.0
2014-Aug-28 01:32N 35°23' E 139°39'6 6.2
2014-Aug-28 00:33N 35°19' E 139°44'1111.4
2014-Aug-27 23:34N 35°08' E 139°46'1615.3
2014-Aug-27 22:33N 34°52' E 139°47'1919.6
2014-Aug-27 21:33N 34°56' E 140°10'2019.1
2014-Aug-27 20:32N 35°06' E 140°31'1818.9
2014-Aug-27 19:33N 35°20' E 140°44'2220.3
2014-Aug-27 18:27N 35°39' E 140°59'1920.2
2014-Aug-27 17:30N 35°59' E 141°01'6 0.2
2014-Aug-26 15:32N 35°53' E 140°60'1919.2
2014-Aug-26 14:33N 35°35' E 140°52'2020.3
2014-Aug-26 13:33N 35°17' E 140°39'1919.6
2014-Aug-26 12:33N 35°03' E 140°24'2020.2
2014-Aug-26 11:34N 34°53' E 140°02'1717.1
2014-Aug-26 10:34N 34°58' E 139°42'1817.6
2014-Aug-26 09:33N 35°15' E 139°47'1212.4
2014-Aug-26 08:33N 35°28' E 139°47'3 2.7
2014-Aug-26 07:32N 35°30' E 139°45'0 0.0
2014-Aug-26 06:32N 35°30' E 139°45'0 0.0
2014-Aug-26 05:32N 35°30' E 139°45'0 0.0
2014-Aug-26 04:32N 35°30' E 139°45'3 2.6
2014-Aug-26 03:33N 35°28' E 139°47'8 8.0
2014-Aug-26 02:33N 35°23' E 139°39'0 0.0
2014-Aug-26 01:33N 35°23' E 139°39'0 0.0
2014-Aug-26 00:33N 35°23' E 139°39'0 0.0
2014-Aug-25 23:33N 35°23' E 139°39'0 0.0
2014-Aug-25 22:33N 35°23' E 139°39'8 8.0
2014-Aug-25 21:33N 35°17' E 139°45'1413.8
2014-Aug-25 20:33N 35°04' E 139°41'6320.0
2014-Aug-25 17:23N 34°31' E 138°35'40 1.4
2014-Aug-24 13:05N 34°36' E 139°23'916.9
2014-Aug-24 12:33N 34°41' E 139°32'1918.9
2014-Aug-24 11:33N 34°59' E 139°40'1716.6
2014-Aug-24 10:33N 35°15' E 139°46'1010.4
2014-Aug-24 09:33N 35°23' E 139°39'0 0.0
2014-Aug-24 08:32N 35°23' E 139°39'0 0.0
2014-Aug-24 07:32N 35°23' E 139°39'0 0.0
2014-Aug-24 06:32N 35°23' E 139°39'0 0.0
2014-Aug-24 05:32N 35°23' E 139°39'0 0.0
2014-Aug-24 04:32N 35°23' E 139°39'0 0.0
2014-Aug-24 03:32N 35°23' E 139°39'2 2.6
2014-Aug-24 02:33N 35°22' E 139°42'1110.6
2014-Aug-24 01:33N 35°13' E 139°47'1818.2
2014-Aug-24 00:33N 34°54' E 139°45'1717.4
2014-Aug-23 23:33N 34°57' E 140°06'2119.4
2014-Aug-23 22:30N 35°08' E 140°28'1819.5
2014-Aug-23 21:33N 35°22' E 140°42'2020.0
2014-Aug-23 20:33N 35°38' E 140°56'2020.1
2014-Aug-23 19:33N 35°58' E 141°02'5 0.2
2014-Aug-22 17:33N 36°03' E 141°01'2120.1
2014-Aug-22 16:31N 35°42' E 140°58'2020.3
2014-Aug-22 15:33N 35°26' E 140°44'  
Track history (hours):
 
Tides and Currents Weather Stations Pressure Air Temp Water Temp Dewpoint Dewpoint Depression Visibility Wind Speed Wind Dir Waves Ship Positions

Toyofujimaru No.2

Last reported at 2014-Sep-01 15:24 UTC. Time now 2014-Sep-01 18:41 UTC.
Position N 34°30' E 138°33'.

Length 165 m; draft 6.5 m.

Type: Cargo ship. MMSI: 432667000.

Date/timePositionNaut miles runAvg speedWind from/ knotsBaromVisibWave heightAir tempDewpointWater temp
2014-Sep-01 15:24N 34°30' E 138°33'5217.2
2014-Sep-01 12:22N 34°41' E 139°35'1316.0
2014-Sep-01 11:33N 34°54' E 139°39'1817.8
2014-Sep-01 10:33N 35°11' E 139°45'1211.6
2014-Sep-01 09:34N 35°22' E 139°41'3 2.7
2014-Sep-01 08:34N 35°23' E 139°39'0 0.0
2014-Sep-01 07:33N 35°23' E 139°39'0 0.0
2014-Sep-01 06:33N 35°23' E 139°39'0 0.0
2014-Sep-01 05:33N 35°23' E 139°39'0 0.0
2014-Sep-01 04:33N 35°23' E 139°39'0 0.0
2014-Sep-01 03:33N 35°23' E 139°39'0 0.0
2014-Sep-01 02:33N 35°23' E 139°39'1 1.1
2014-Sep-01 01:34N 35°23' E 139°40'1313.1
2014-Sep-01 00:33N 35°11' E 139°47'1717.5
2014-Aug-31 23:33N 34°54' E 139°47'1817.6
2014-Aug-31 22:33N 34°58' E 140°08'1918.5
2014-Aug-31 21:31N 35°08' E 140°28'1919.0
2014-Aug-31 20:32N 35°22' E 140°43'1919.5
2014-Aug-31 19:34N 35°38' E 140°55'1919.2
2014-Aug-31 18:33N 35°57' E 141°01'2519.4
2014-Aug-31 17:16N 36°22' E 141°04'4 0.2
2014-Aug-30 17:10N 36°18' E 141°03'1318.5
2014-Aug-30 16:29N 36°05' E 141°01'1718.8
2014-Aug-30 15:33N 35°48' E 140°58'1818.3
2014-Aug-30 14:33N 35°31' E 140°49'1918.8
2014-Aug-30 13:33N 35°16' E 140°36'1918.9
2014-Aug-30 12:34N 35°03' E 140°19'2019.7
2014-Aug-30 11:33N 34°52' E 139°59'1616.2
2014-Aug-30 10:34N 35°01' E 139°43'1616.0
2014-Aug-30 09:33N 35°17' E 139°45'1313.5
2014-Aug-30 08:33N 35°30' E 139°46'1 0.7
2014-Aug-30 07:32N 35°30' E 139°45'0 0.0
2014-Aug-30 06:32N 35°30' E 139°45'0 0.0
2014-Aug-30 05:32N 35°30' E 139°45'0 0.0
2014-Aug-30 04:32N 35°30' E 139°45'0 0.0
2014-Aug-30 03:32N 35°30' E 139°45'8 8.4
2014-Aug-30 02:34N 35°23' E 139°40'1 0.7
2014-Aug-30 01:33N 35°23' E 139°39'0 0.0
2014-Aug-30 00:33N 35°23' E 139°39'0 0.0
2014-Aug-29 23:33N 35°23' E 139°39'0 0.0
2014-Aug-29 22:33N 35°23' E 139°39'3 2.9
2014-Aug-29 21:33N 35°22' E 139°42'1313.1
2014-Aug-29 20:33N 35°09' E 139°45'2019.5
2014-Aug-29 19:33N 34°55' E 139°28'4819.2
2014-Aug-29 17:04N 34°31' E 138°38'1018.3
2014-Aug-29 16:32N 34°30' E 138°26'6 0.2
2014-Aug-28 15:32N 34°28' E 138°32'5217.3
2014-Aug-28 12:31N 34°44' E 139°32'1919.7
2014-Aug-28 11:33N 35°01' E 139°41'1615.7
2014-Aug-28 10:33N 35°17' E 139°45'8 8.5
2014-Aug-28 09:33N 35°23' E 139°39'0 0.0
2014-Aug-28 08:32N 35°23' E 139°39'0 0.0
2014-Aug-28 07:32N 35°23' E 139°39'0 0.0
2014-Aug-28 06:32N 35°23' E 139°39'0 0.0
2014-Aug-28 05:32N 35°23' E 139°39'0 0.0
2014-Aug-28 04:32N 35°23' E 139°39'0 0.0
2014-Aug-28 03:32N 35°23' E 139°39'0 0.0
2014-Aug-28 02:32N 35°23' E 139°39'0 0.0
2014-Aug-28 01:32N 35°23' E 139°39'6 6.2
2014-Aug-28 00:33N 35°19' E 139°44'1111.4
2014-Aug-27 23:34N 35°08' E 139°46'1615.3
2014-Aug-27 22:33N 34°52' E 139°47'1919.6
2014-Aug-27 21:33N 34°56' E 140°10'2019.1
2014-Aug-27 20:32N 35°06' E 140°31'1818.9
2014-Aug-27 19:33N 35°20' E 140°44'2220.3
2014-Aug-27 18:27N 35°39' E 140°59'1920.2
2014-Aug-27 17:30N 35°59' E 141°01'6 0.2
2014-Aug-26 15:32N 35°53' E 140°60'1919.2
2014-Aug-26 14:33N 35°35' E 140°52'2020.3
2014-Aug-26 13:33N 35°17' E 140°39'1919.6
2014-Aug-26 12:33N 35°03' E 140°24'2020.2
2014-Aug-26 11:34N 34°53' E 140°02'1717.1
2014-Aug-26 10:34N 34°58' E 139°42'1817.6
2014-Aug-26 09:33N 35°15' E 139°47'1212.4
2014-Aug-26 08:33N 35°28' E 139°47'3 2.7
2014-Aug-26 07:32N 35°30' E 139°45'0 0.0
2014-Aug-26 06:32N 35°30' E 139°45'0 0.0
2014-Aug-26 05:32N 35°30' E 139°45'0 0.0
2014-Aug-26 04:32N 35°30' E 139°45'3 2.6
2014-Aug-26 03:33N 35°28' E 139°47'8 8.0
2014-Aug-26 02:33N 35°23' E 139°39'0 0.0
2014-Aug-26 01:33N 35°23' E 139°39'0 0.0
2014-Aug-26 00:33N 35°23' E 139°39'0 0.0
2014-Aug-25 23:33N 35°23' E 139°39'0 0.0
2014-Aug-25 22:33N 35°23' E 139°39'8 8.0
2014-Aug-25 21:33N 35°17' E 139°45'1413.8
2014-Aug-25 20:33N 35°04' E 139°41'6320.0
2014-Aug-25 17:23N 34°31' E 138°35'40 1.4
2014-Aug-24 13:05N 34°36' E 139°23'916.9
2014-Aug-24 12:33N 34°41' E 139°32'1918.9
2014-Aug-24 11:33N 34°59' E 139°40'1716.6
2014-Aug-24 10:33N 35°15' E 139°46'1010.4
2014-Aug-24 09:33N 35°23' E 139°39'0 0.0
2014-Aug-24 08:32N 35°23' E 139°39'0 0.0
2014-Aug-24 07:32N 35°23' E 139°39'0 0.0
2014-Aug-24 06:32N 35°23' E 139°39'0 0.0
2014-Aug-24 05:32N 35°23' E 139°39'0 0.0
2014-Aug-24 04:32N 35°23' E 139°39'0 0.0
2014-Aug-24 03:32N 35°23' E 139°39'2 2.6
2014-Aug-24 02:33N 35°22' E 139°42'1110.6
2014-Aug-24 01:33N 35°13' E 139°47'1818.2
2014-Aug-24 00:33N 34°54' E 139°45'1717.4
2014-Aug-23 23:33N 34°57' E 140°06'2119.4
2014-Aug-23 22:30N 35°08' E 140°28'1819.5
2014-Aug-23 21:33N 35°22' E 140°42'2020.0
2014-Aug-23 20:33N 35°38' E 140°56'2020.1
2014-Aug-23 19:33N 35°58' E 141°02'5 0.2
2014-Aug-22 17:33N 36°03' E 141°01'2120.1
2014-Aug-22 16:31N 35°42' E 140°58'2020.3
2014-Aug-22 15:33N 35°26' E 140°44'  

Dump ship's entire track history